sensor_id;sensor_type;location;lat;lon;timestamp;P1;durP1;ratioP1;P2;durP2;ratioP2
68365;SDS011;55283;51.466;5.478;2022-11-12T00:00:24;6.97;;;4.87;;
68365;SDS011;55283;51.466;5.478;2022-11-12T00:02:50;10.77;;;5.03;;
68365;SDS011;55283;51.466;5.478;2022-11-12T00:05:15;6.57;;;4.80;;
68365;SDS011;55283;51.466;5.478;2022-11-12T00:07:40;7.10;;;4.80;;
68365;SDS011;55283;51.466;5.478;2022-11-12T00:10:07;6.70;;;4.70;;
68365;SDS011;55283;51.466;5.478;2022-11-12T00:12:33;12.83;;;4.80;;
68365;SDS011;55283;51.466;5.478;2022-11-12T00:14:58;6.43;;;4.83;;
68365;SDS011;55283;51.466;5.478;2022-11-12T00:17:24;7.15;;;4.97;;
68365;SDS011;55283;51.466;5.478;2022-11-12T00:19:49;6.77;;;4.80;;
68365;SDS011;55283;51.466;5.478;2022-11-12T00:22:15;7.00;;;4.80;;
68365;SDS011;55283;51.466;5.478;2022-11-12T00:24:40;7.27;;;5.13;;
68365;SDS011;55283;51.466;5.478;2022-11-12T00:27:06;7.70;;;5.00;;
68365;SDS011;55283;51.466;5.478;2022-11-12T00:29:31;6.67;;;4.97;;
68365;SDS011;55283;51.466;5.478;2022-11-12T00:31:57;6.97;;;4.90;;
68365;SDS011;55283;51.466;5.478;2022-11-12T00:34:22;7.18;;;4.82;;
68365;SDS011;55283;51.466;5.478;2022-11-12T00:36:47;5.93;;;4.50;;
68365;SDS011;55283;51.466;5.478;2022-11-12T00:39:13;6.50;;;4.80;;
68365;SDS011;55283;51.466;5.478;2022-11-12T00:41:38;6.30;;;4.53;;
68365;SDS011;55283;51.466;5.478;2022-11-12T00:44:04;5.83;;;4.50;;
68365;SDS011;55283;51.466;5.478;2022-11-12T00:46:29;6.93;;;4.80;;
68365;SDS011;55283;51.466;5.478;2022-11-12T00:48:55;5.60;;;4.70;;
68365;SDS011;55283;51.466;5.478;2022-11-12T00:51:21;8.35;;;4.78;;
68365;SDS011;55283;51.466;5.478;2022-11-12T00:53:46;6.63;;;4.90;;
68365;SDS011;55283;51.466;5.478;2022-11-12T00:56:13;6.47;;;4.72;;
68365;SDS011;55283;51.466;5.478;2022-11-12T00:58:39;6.70;;;4.70;;
68365;SDS011;55283;51.466;5.478;2022-11-12T01:01:05;8.10;;;4.70;;
68365;SDS011;55283;51.466;5.478;2022-11-12T01:03:36;6.03;;;4.47;;
68365;SDS011;55283;51.466;5.478;2022-11-12T01:06:10;6.03;;;4.70;;
68365;SDS011;55283;51.466;5.478;2022-11-12T01:08:38;7.17;;;4.37;;
68365;SDS011;55283;51.466;5.478;2022-11-12T01:11:11;6.68;;;4.70;;
68365;SDS011;55283;51.466;5.478;2022-11-12T01:13:40;6.93;;;4.72;;
68365;SDS011;55283;51.466;5.478;2022-11-12T01:16:08;8.02;;;4.60;;
68365;SDS011;55283;51.466;5.478;2022-11-12T01:18:36;6.57;;;4.77;;
68365;SDS011;55283;51.466;5.478;2022-11-12T01:21:02;5.50;;;4.65;;
68365;SDS011;55283;51.466;5.478;2022-11-12T01:23:30;6.27;;;4.60;;
68365;SDS011;55283;51.466;5.478;2022-11-12T01:25:57;6.78;;;4.63;;
68365;SDS011;55283;51.466;5.478;2022-11-12T01:28:23;7.85;;;4.70;;
68365;SDS011;55283;51.466;5.478;2022-11-12T01:30:48;5.83;;;4.37;;
68365;SDS011;55283;51.466;5.478;2022-11-12T01:33:14;10.23;;;4.60;;
68365;SDS011;55283;51.466;5.478;2022-11-12T01:35:39;5.93;;;4.53;;
68365;SDS011;55283;51.466;5.478;2022-11-12T01:38:05;6.20;;;4.30;;
68365;SDS011;55283;51.466;5.478;2022-11-12T01:40:30;5.80;;;4.50;;
68365;SDS011;55283;51.466;5.478;2022-11-12T01:42:56;5.93;;;4.22;;
68365;SDS011;55283;51.466;5.478;2022-11-12T01:45:22;5.83;;;4.57;;
68365;SDS011;55283;51.466;5.478;2022-11-12T01:47:48;7.47;;;4.70;;
68365;SDS011;55283;51.466;5.478;2022-11-12T01:53:02;5.35;;;4.32;;
68365;SDS011;55283;51.466;5.478;2022-11-12T01:55:33;5.30;;;3.97;;
68365;SDS011;55283;51.466;5.478;2022-11-12T01:58:06;5.72;;;4.50;;
68365;SDS011;55283;51.466;5.478;2022-11-12T02:00:35;5.00;;;4.15;;
68365;SDS011;55283;51.466;5.478;2022-11-12T02:03:01;6.27;;;4.43;;
68365;SDS011;55283;51.466;5.478;2022-11-12T02:05:29;5.53;;;4.05;;
68365;SDS011;55283;51.466;5.478;2022-11-12T02:07:57;5.57;;;4.40;;
68365;SDS011;55283;51.466;5.478;2022-11-12T02:10:25;5.83;;;4.20;;
68365;SDS011;55283;51.466;5.478;2022-11-12T02:12:50;6.13;;;4.43;;
68365;SDS011;55283;51.466;5.478;2022-11-12T02:15:37;5.60;;;4.07;;
68365;SDS011;55283;51.466;5.478;2022-11-12T02:18:04;6.15;;;4.20;;
68365;SDS011;55283;51.466;5.478;2022-11-12T02:20:34;6.63;;;4.77;;
68365;SDS011;55283;51.466;5.478;2022-11-12T02:23:01;4.63;;;4.10;;
68365;SDS011;55283;51.466;5.478;2022-11-12T02:25:27;5.25;;;4.13;;
68365;SDS011;55283;51.466;5.478;2022-11-12T02:27:53;4.77;;;3.87;;
68365;SDS011;55283;51.466;5.478;2022-11-12T02:30:30;5.55;;;4.18;;
68365;SDS011;55283;51.466;5.478;2022-11-12T02:32:57;6.28;;;4.20;;
68365;SDS011;55283;51.466;5.478;2022-11-12T02:35:23;4.80;;;3.73;;
68365;SDS011;55283;51.466;5.478;2022-11-12T02:37:49;5.43;;;4.17;;
68365;SDS011;55283;51.466;5.478;2022-11-12T02:40:14;5.70;;;4.10;;
68365;SDS011;55283;51.466;5.478;2022-11-12T02:42:40;5.23;;;3.90;;
68365;SDS011;55283;51.466;5.478;2022-11-12T02:45:06;5.18;;;4.13;;
68365;SDS011;55283;51.466;5.478;2022-11-12T02:47:32;5.60;;;3.87;;
68365;SDS011;55283;51.466;5.478;2022-11-12T02:49:57;4.72;;;3.90;;
68365;SDS011;55283;51.466;5.478;2022-11-12T02:52:23;5.67;;;4.00;;
68365;SDS011;55283;51.466;5.478;2022-11-12T02:54:48;5.20;;;3.97;;
68365;SDS011;55283;51.466;5.478;2022-11-12T02:57:14;4.70;;;3.80;;
68365;SDS011;55283;51.466;5.478;2022-11-12T02:59:39;4.57;;;3.90;;
68365;SDS011;55283;51.466;5.478;2022-11-12T03:02:04;5.70;;;3.93;;
68365;SDS011;55283;51.466;5.478;2022-11-12T03:04:30;5.10;;;3.93;;
68365;SDS011;55283;51.466;5.478;2022-11-12T03:06:55;5.90;;;4.33;;
68365;SDS011;55283;51.466;5.478;2022-11-12T03:09:23;5.53;;;3.90;;
68365;SDS011;55283;51.466;5.478;2022-11-12T03:11:49;4.90;;;4.07;;
68365;SDS011;55283;51.466;5.478;2022-11-12T03:14:14;6.23;;;3.90;;
68365;SDS011;55283;51.466;5.478;2022-11-12T03:16:39;4.47;;;3.83;;
68365;SDS011;55283;51.466;5.478;2022-11-12T03:19:05;5.38;;;3.90;;
68365;SDS011;55283;51.466;5.478;2022-11-12T03:21:30;5.47;;;4.10;;
68365;SDS011;55283;51.466;5.478;2022-11-12T03:23:59;5.05;;;4.05;;
68365;SDS011;55283;51.466;5.478;2022-11-12T03:26:25;4.70;;;3.70;;
68365;SDS011;55283;51.466;5.478;2022-11-12T03:28:50;6.22;;;3.88;;
68365;SDS011;55283;51.466;5.478;2022-11-12T03:31:18;4.87;;;3.73;;
68365;SDS011;55283;51.466;5.478;2022-11-12T03:33:44;4.97;;;3.83;;
68365;SDS011;55283;51.466;5.478;2022-11-12T03:36:12;5.25;;;4.00;;
68365;SDS011;55283;51.466;5.478;2022-11-12T03:38:37;6.68;;;3.70;;
68365;SDS011;55283;51.466;5.478;2022-11-12T03:41:03;5.47;;;3.67;;
68365;SDS011;55283;51.466;5.478;2022-11-12T03:43:28;4.23;;;3.37;;
68365;SDS011;55283;51.466;5.478;2022-11-12T03:45:54;5.45;;;4.10;;
68365;SDS011;55283;51.466;5.478;2022-11-12T03:48:19;4.30;;;3.53;;
68365;SDS011;55283;51.466;5.478;2022-11-12T03:50:47;5.68;;;3.80;;
68365;SDS011;55283;51.466;5.478;2022-11-12T03:53:13;4.83;;;3.60;;
68365;SDS011;55283;51.466;5.478;2022-11-12T03:55:38;5.27;;;3.77;;
68365;SDS011;55283;51.466;5.478;2022-11-12T03:58:07;7.07;;;3.88;;
68365;SDS011;55283;51.466;5.478;2022-11-12T04:00:32;5.20;;;3.70;;
68365;SDS011;55283;51.466;5.478;2022-11-12T04:02:58;5.03;;;3.70;;
68365;SDS011;55283;51.466;5.478;2022-11-12T04:05:25;5.10;;;3.78;;
68365;SDS011;55283;51.466;5.478;2022-11-12T04:08:14;4.50;;;3.80;;
68365;SDS011;55283;51.466;5.478;2022-11-12T04:11:00;4.47;;;3.70;;
68365;SDS011;55283;51.466;5.478;2022-11-12T04:13:26;4.95;;;3.65;;
68365;SDS011;55283;51.466;5.478;2022-11-12T04:15:53;4.40;;;4.00;;
68365;SDS011;55283;51.466;5.478;2022-11-12T04:18:43;5.95;;;3.70;;
68365;SDS011;55283;51.466;5.478;2022-11-12T04:21:31;6.45;;;3.95;;
68365;SDS011;55283;51.466;5.478;2022-11-12T04:24:22;5.47;;;3.80;;
68365;SDS011;55283;51.466;5.478;2022-11-12T04:29:43;4.53;;;3.60;;
68365;SDS011;55283;51.466;5.478;2022-11-12T04:32:28;4.20;;;3.60;;
68365;SDS011;55283;51.466;5.478;2022-11-12T04:34:55;5.80;;;3.75;;
68365;SDS011;55283;51.466;5.478;2022-11-12T04:37:21;5.87;;;4.03;;
68365;SDS011;55283;51.466;5.478;2022-11-12T04:39:47;4.70;;;3.50;;
68365;SDS011;55283;51.466;5.478;2022-11-12T04:42:16;4.97;;;3.60;;
68365;SDS011;55283;51.466;5.478;2022-11-12T04:45:01;4.40;;;3.50;;
68365;SDS011;55283;51.466;5.478;2022-11-12T04:47:32;4.20;;;3.63;;
68365;SDS011;55283;51.466;5.478;2022-11-12T04:50:00;4.97;;;3.83;;
68365;SDS011;55283;51.466;5.478;2022-11-12T04:52:26;4.83;;;3.80;;
68365;SDS011;55283;51.466;5.478;2022-11-12T04:54:52;5.00;;;3.70;;
68365;SDS011;55283;51.466;5.478;2022-11-12T04:57:21;5.00;;;3.58;;
68365;SDS011;55283;51.466;5.478;2022-11-12T04:59:49;4.90;;;3.47;;
68365;SDS011;55283;51.466;5.478;2022-11-12T05:02:15;5.03;;;3.83;;
68365;SDS011;55283;51.466;5.478;2022-11-12T05:04:41;4.93;;;3.67;;
68365;SDS011;55283;51.466;5.478;2022-11-12T05:07:07;5.32;;;3.80;;
68365;SDS011;55283;51.466;5.478;2022-11-12T05:09:34;5.35;;;3.70;;
68365;SDS011;55283;51.466;5.478;2022-11-12T05:12:00;4.50;;;3.73;;
68365;SDS011;55283;51.466;5.478;2022-11-12T05:14:29;5.22;;;3.70;;
68365;SDS011;55283;51.466;5.478;2022-11-12T05:16:54;5.05;;;3.55;;
68365;SDS011;55283;51.466;5.478;2022-11-12T05:19:19;5.27;;;3.73;;
68365;SDS011;55283;51.466;5.478;2022-11-12T05:21:45;5.03;;;3.63;;
68365;SDS011;55283;51.466;5.478;2022-11-12T05:24:29;4.55;;;3.42;;
68365;SDS011;55283;51.466;5.478;2022-11-12T05:26:59;6.18;;;3.72;;
68365;SDS011;55283;51.466;5.478;2022-11-12T05:29:25;7.23;;;3.50;;
68365;SDS011;55283;51.466;5.478;2022-11-12T05:31:50;4.43;;;3.60;;
68365;SDS011;55283;51.466;5.478;2022-11-12T05:34:15;5.37;;;3.60;;
68365;SDS011;55283;51.466;5.478;2022-11-12T05:36:41;4.57;;;3.57;;
68365;SDS011;55283;51.466;5.478;2022-11-12T05:39:06;4.40;;;3.30;;
68365;SDS011;55283;51.466;5.478;2022-11-12T05:41:31;6.30;;;3.60;;
68365;SDS011;55283;51.466;5.478;2022-11-12T05:43:57;4.77;;;3.60;;
68365;SDS011;55283;51.466;5.478;2022-11-12T05:46:22;4.80;;;3.83;;
68365;SDS011;55283;51.466;5.478;2022-11-12T05:48:48;5.30;;;3.67;;
68365;SDS011;55283;51.466;5.478;2022-11-12T05:51:15;4.05;;;3.58;;
68365;SDS011;55283;51.466;5.478;2022-11-12T05:53:41;5.03;;;3.30;;
68365;SDS011;55283;51.466;5.478;2022-11-12T05:56:07;4.70;;;3.70;;
68365;SDS011;55283;51.466;5.478;2022-11-12T05:58:34;5.22;;;3.70;;
68365;SDS011;55283;51.466;5.478;2022-11-12T06:01:02;4.17;;;3.30;;
68365;SDS011;55283;51.466;5.478;2022-11-12T06:03:29;4.43;;;3.70;;
68365;SDS011;55283;51.466;5.478;2022-11-12T06:05:55;4.55;;;3.30;;
68365;SDS011;55283;51.466;5.478;2022-11-12T06:08:20;5.80;;;3.80;;
68365;SDS011;55283;51.466;5.478;2022-11-12T06:10:53;4.13;;;3.17;;
68365;SDS011;55283;51.466;5.478;2022-11-12T06:13:22;4.75;;;3.47;;
68365;SDS011;55283;51.466;5.478;2022-11-12T06:15:49;4.60;;;3.70;;
68365;SDS011;55283;51.466;5.478;2022-11-12T06:18:16;4.63;;;3.30;;
68365;SDS011;55283;51.466;5.478;2022-11-12T06:20:44;4.63;;;3.30;;
68365;SDS011;55283;51.466;5.478;2022-11-12T06:23:10;5.13;;;3.60;;
68365;SDS011;55283;51.466;5.478;2022-11-12T06:25:36;6.30;;;3.53;;
68365;SDS011;55283;51.466;5.478;2022-11-12T06:28:01;7.40;;;3.70;;
68365;SDS011;55283;51.466;5.478;2022-11-12T06:30:27;6.47;;;3.50;;
68365;SDS011;55283;51.466;5.478;2022-11-12T06:32:52;5.27;;;3.43;;
68365;SDS011;55283;51.466;5.478;2022-11-12T06:35:18;4.90;;;3.33;;
68365;SDS011;55283;51.466;5.478;2022-11-12T06:37:45;6.00;;;3.60;;
68365;SDS011;55283;51.466;5.478;2022-11-12T06:40:11;5.25;;;3.30;;
68365;SDS011;55283;51.466;5.478;2022-11-12T06:42:36;4.87;;;3.60;;
68365;SDS011;55283;51.466;5.478;2022-11-12T06:45:02;4.43;;;3.30;;
68365;SDS011;55283;51.466;5.478;2022-11-12T06:47:28;9.33;;;3.80;;
68365;SDS011;55283;51.466;5.478;2022-11-12T06:49:53;6.43;;;3.93;;
68365;SDS011;55283;51.466;5.478;2022-11-12T06:52:18;6.27;;;3.60;;
68365;SDS011;55283;51.466;5.478;2022-11-12T06:54:44;7.77;;;3.67;;
68365;SDS011;55283;51.466;5.478;2022-11-12T06:57:09;5.03;;;3.58;;
68365;SDS011;55283;51.466;5.478;2022-11-12T06:59:35;5.53;;;3.20;;
68365;SDS011;55283;51.466;5.478;2022-11-12T07:02:00;6.37;;;3.40;;
68365;SDS011;55283;51.466;5.478;2022-11-12T07:04:28;6.25;;;3.45;;
68365;SDS011;55283;51.466;5.478;2022-11-12T07:06:56;5.80;;;3.20;;
68365;SDS011;55283;51.466;5.478;2022-11-12T07:09:22;7.07;;;3.30;;
68365;SDS011;55283;51.466;5.478;2022-11-12T07:11:47;7.37;;;4.60;;
68365;SDS011;55283;51.466;5.478;2022-11-12T07:14:12;13.10;;;5.83;;
68365;SDS011;55283;51.466;5.478;2022-11-12T07:16:38;7.57;;;5.00;;
68365;SDS011;55283;51.466;5.478;2022-11-12T07:19:03;10.77;;;5.10;;
68365;SDS011;55283;51.466;5.478;2022-11-12T07:21:29;9.98;;;5.20;;
68365;SDS011;55283;51.466;5.478;2022-11-12T07:23:54;8.43;;;5.27;;
68365;SDS011;55283;51.466;5.478;2022-11-12T07:26:26;9.30;;;5.47;;
68365;SDS011;55283;51.466;5.478;2022-11-12T07:28:54;9.32;;;5.13;;
68365;SDS011;55283;51.466;5.478;2022-11-12T07:31:22;7.40;;;4.70;;
68365;SDS011;55283;51.466;5.478;2022-11-12T07:33:47;9.75;;;4.70;;
68365;SDS011;55283;51.466;5.478;2022-11-12T07:36:17;7.47;;;4.30;;
68365;SDS011;55283;51.466;5.478;2022-11-12T07:38:44;8.13;;;4.32;;
68365;SDS011;55283;51.466;5.478;2022-11-12T07:43:39;6.82;;;4.13;;
68365;SDS011;55283;51.466;5.478;2022-11-12T07:46:10;6.93;;;4.20;;
68365;SDS011;55283;51.466;5.478;2022-11-12T07:48:45;6.10;;;4.10;;
68365;SDS011;55283;51.466;5.478;2022-11-12T07:51:12;6.30;;;4.18;;
68365;SDS011;55283;51.466;5.478;2022-11-12T07:53:38;6.57;;;3.77;;
68365;SDS011;55283;51.466;5.478;2022-11-12T07:56:03;6.90;;;4.10;;
68365;SDS011;55283;51.466;5.478;2022-11-12T07:58:30;6.67;;;4.03;;
68365;SDS011;55283;51.466;5.478;2022-11-12T08:03:35;6.15;;;4.00;;
68365;SDS011;55283;51.466;5.478;2022-11-12T08:06:01;7.85;;;4.20;;
68365;SDS011;55283;51.466;5.478;2022-11-12T08:08:34;11.90;;;4.00;;
68365;SDS011;55283;51.466;5.478;2022-11-12T08:10:59;11.27;;;3.90;;
68365;SDS011;55283;51.466;5.478;2022-11-12T08:13:27;6.83;;;4.20;;
68365;SDS011;55283;51.466;5.478;2022-11-12T08:15:55;6.53;;;4.07;;
68365;SDS011;55283;51.466;5.478;2022-11-12T08:18:21;9.43;;;3.75;;
68365;SDS011;55283;51.466;5.478;2022-11-12T08:20:49;6.30;;;3.67;;
68365;SDS011;55283;51.466;5.478;2022-11-12T08:23:17;6.47;;;3.70;;
68365;SDS011;55283;51.466;5.478;2022-11-12T08:25:42;4.77;;;3.60;;
68365;SDS011;55283;51.466;5.478;2022-11-12T08:28:11;5.78;;;3.40;;
68365;SDS011;55283;51.466;5.478;2022-11-12T08:30:39;6.27;;;3.70;;
68365;SDS011;55283;51.466;5.478;2022-11-12T08:33:04;5.43;;;3.60;;
68365;SDS011;55283;51.466;5.478;2022-11-12T08:35:36;6.27;;;3.80;;
68365;SDS011;55283;51.466;5.478;2022-11-12T08:38:03;5.30;;;3.63;;
68365;SDS011;55283;51.466;5.478;2022-11-12T08:40:31;6.75;;;3.70;;
68365;SDS011;55283;51.466;5.478;2022-11-12T08:43:01;5.80;;;3.40;;
68365;SDS011;55283;51.466;5.478;2022-11-12T08:45:31;6.38;;;3.97;;
68365;SDS011;55283;51.466;5.478;2022-11-12T08:48:04;5.88;;;3.45;;
68365;SDS011;55283;51.466;5.478;2022-11-12T08:50:34;8.80;;;3.70;;
68365;SDS011;55283;51.466;5.478;2022-11-12T08:53:01;5.43;;;3.35;;
68365;SDS011;55283;51.466;5.478;2022-11-12T08:55:41;5.88;;;3.60;;
68365;SDS011;55283;51.466;5.478;2022-11-12T08:58:07;4.50;;;3.30;;
68365;SDS011;55283;51.466;5.478;2022-11-12T09:00:36;5.63;;;3.57;;
68365;SDS011;55283;51.466;5.478;2022-11-12T09:03:04;4.78;;;3.40;;
68365;SDS011;55283;51.466;5.478;2022-11-12T09:05:34;4.85;;;3.45;;
68365;SDS011;55283;51.466;5.478;2022-11-12T09:08:01;5.10;;;3.43;;
68365;SDS011;55283;51.466;5.478;2022-11-12T09:10:31;5.95;;;3.50;;
68365;SDS011;55283;51.466;5.478;2022-11-12T09:12:57;7.65;;;3.63;;
68365;SDS011;55283;51.466;5.478;2022-11-12T09:15:23;5.87;;;3.63;;
68365;SDS011;55283;51.466;5.478;2022-11-12T09:17:55;5.95;;;3.58;;
68365;SDS011;55283;51.466;5.478;2022-11-12T09:20:22;4.90;;;3.50;;
68365;SDS011;55283;51.466;5.478;2022-11-12T09:22:51;4.53;;;3.70;;
68365;SDS011;55283;51.466;5.478;2022-11-12T09:25:17;5.47;;;3.60;;
68365;SDS011;55283;51.466;5.478;2022-11-12T09:27:44;4.60;;;3.35;;
68365;SDS011;55283;51.466;5.478;2022-11-12T09:30:12;5.00;;;3.40;;
68365;SDS011;55283;51.466;5.478;2022-11-12T09:32:38;4.50;;;3.25;;
68365;SDS011;55283;51.466;5.478;2022-11-12T09:35:06;4.67;;;3.17;;
68365;SDS011;55283;51.466;5.478;2022-11-12T09:37:37;5.68;;;3.40;;
68365;SDS011;55283;51.466;5.478;2022-11-12T09:40:06;5.45;;;3.30;;
68365;SDS011;55283;51.466;5.478;2022-11-12T09:42:39;4.87;;;3.20;;
68365;SDS011;55283;51.466;5.478;2022-11-12T09:45:13;5.15;;;3.40;;
68365;SDS011;55283;51.466;5.478;2022-11-12T09:47:51;4.03;;;3.08;;
68365;SDS011;55283;51.466;5.478;2022-11-12T09:50:34;5.07;;;3.30;;
68365;SDS011;55283;51.466;5.478;2022-11-12T09:53:52;4.63;;;3.15;;
68365;SDS011;55283;51.466;5.478;2022-11-12T09:56:20;3.85;;;3.20;;
68365;SDS011;55283;51.466;5.478;2022-11-12T09:58:48;4.63;;;3.30;;
68365;SDS011;55283;51.466;5.478;2022-11-12T10:01:17;6.03;;;3.58;;
68365;SDS011;55283;51.466;5.478;2022-11-12T10:03:52;4.15;;;2.90;;
68365;SDS011;55283;51.466;5.478;2022-11-12T10:06:34;3.88;;;3.05;;
68365;SDS011;55283;51.466;5.478;2022-11-12T10:09:08;4.30;;;3.23;;
68365;SDS011;55283;51.466;5.478;2022-11-12T10:17:53;5.93;;;3.20;;
68365;SDS011;55283;51.466;5.478;2022-11-12T10:20:48;4.68;;;3.35;;
68365;SDS011;55283;51.466;5.478;2022-11-12T10:26:24;3.83;;;3.27;;
68365;SDS011;55283;51.466;5.478;2022-11-12T10:31:23;6.75;;;2.95;;
68365;SDS011;55283;51.466;5.478;2022-11-12T10:33:48;4.73;;;3.27;;
68365;SDS011;55283;51.466;5.478;2022-11-12T10:38:59;4.68;;;3.10;;
68365;SDS011;55283;51.466;5.478;2022-11-12T10:41:31;4.45;;;3.22;;
68365;SDS011;55283;51.466;5.478;2022-11-12T10:46:31;4.70;;;3.30;;
68365;SDS011;55283;51.466;5.478;2022-11-12T10:51:30;4.13;;;3.17;;
68365;SDS011;55283;51.466;5.478;2022-11-12T10:53:58;3.90;;;3.10;;
68365;SDS011;55283;51.466;5.478;2022-11-12T10:56:42;4.20;;;3.03;;
68365;SDS011;55283;51.466;5.478;2022-11-12T11:01:44;4.47;;;3.00;;
68365;SDS011;55283;51.466;5.478;2022-11-12T11:04:28;5.05;;;3.25;;
68365;SDS011;55283;51.466;5.478;2022-11-12T11:06:59;3.88;;;3.10;;
68365;SDS011;55283;51.466;5.478;2022-11-12T11:09:28;4.47;;;3.30;;
68365;SDS011;55283;51.466;5.478;2022-11-12T11:11:59;4.38;;;3.00;;
68365;SDS011;55283;51.466;5.478;2022-11-12T11:14:26;5.15;;;2.90;;
68365;SDS011;55283;51.466;5.478;2022-11-12T11:17:00;4.87;;;3.00;;
68365;SDS011;55283;51.466;5.478;2022-11-12T11:19:38;3.70;;;3.00;;
68365;SDS011;55283;51.466;5.478;2022-11-12T11:22:17;5.22;;;3.30;;
68365;SDS011;55283;51.466;5.478;2022-11-12T11:30:28;3.97;;;3.38;;
68365;SDS011;55283;51.466;5.478;2022-11-12T11:33:01;5.73;;;3.60;;
68365;SDS011;55283;51.466;5.478;2022-11-12T11:54:34;5.05;;;3.10;;
68365;SDS011;55283;51.466;5.478;2022-11-12T11:57:51;4.20;;;3.13;;
68365;SDS011;55283;51.466;5.478;2022-11-12T12:00:20;5.05;;;3.30;;
68365;SDS011;55283;51.466;5.478;2022-11-12T12:08:33;6.63;;;3.15;;
68365;SDS011;55283;51.466;5.478;2022-11-12T12:11:34;3.93;;;3.00;;
68365;SDS011;55283;51.466;5.478;2022-11-12T12:14:04;4.38;;;3.13;;
68365;SDS011;55283;51.466;5.478;2022-11-12T12:19:11;4.10;;;3.27;;
68365;SDS011;55283;51.466;5.478;2022-11-12T12:21:39;3.30;;;2.80;;
68365;SDS011;55283;51.466;5.478;2022-11-12T12:29:38;4.40;;;3.00;;
68365;SDS011;55283;51.466;5.478;2022-11-12T12:32:18;3.88;;;2.88;;
68365;SDS011;55283;51.466;5.478;2022-11-12T12:37:51;5.70;;;3.13;;
68365;SDS011;55283;51.466;5.478;2022-11-12T12:40:40;5.93;;;3.30;;
68365;SDS011;55283;51.466;5.478;2022-11-12T12:45:45;5.33;;;2.90;;
68365;SDS011;55283;51.466;5.478;2022-11-12T12:48:22;4.63;;;2.90;;
68365;SDS011;55283;51.466;5.478;2022-11-12T12:50:53;5.45;;;3.13;;
68365;SDS011;55283;51.466;5.478;2022-11-12T12:55:51;5.37;;;3.23;;
68365;SDS011;55283;51.466;5.478;2022-11-12T13:08:48;4.63;;;3.15;;
68365;SDS011;55283;51.466;5.478;2022-11-12T13:19:30;4.30;;;3.13;;
68365;SDS011;55283;51.466;5.478;2022-11-12T13:30:05;4.88;;;3.15;;
68365;SDS011;55283;51.466;5.478;2022-11-12T13:37:54;4.00;;;2.90;;
68365;SDS011;55283;51.466;5.478;2022-11-12T13:45:49;4.20;;;3.03;;
68365;SDS011;55283;51.466;5.478;2022-11-12T13:48:35;4.15;;;3.13;;
68365;SDS011;55283;51.466;5.478;2022-11-12T13:53:58;5.53;;;3.10;;
68365;SDS011;55283;51.466;5.478;2022-11-12T13:56:28;4.57;;;3.20;;
68365;SDS011;55283;51.466;5.478;2022-11-12T13:59:12;4.07;;;2.80;;
68365;SDS011;55283;51.466;5.478;2022-11-12T14:01:38;3.63;;;2.85;;
68365;SDS011;55283;51.466;5.478;2022-11-12T14:04:05;3.72;;;2.92;;
68365;SDS011;55283;51.466;5.478;2022-11-12T14:06:35;3.90;;;2.80;;
68365;SDS011;55283;51.466;5.478;2022-11-12T14:17:27;3.47;;;2.80;;
68365;SDS011;55283;51.466;5.478;2022-11-12T14:22:54;4.55;;;3.03;;
68365;SDS011;55283;51.466;5.478;2022-11-12T14:25:26;4.27;;;3.20;;
68365;SDS011;55283;51.466;5.478;2022-11-12T14:27:53;4.72;;;3.00;;
68365;SDS011;55283;51.466;5.478;2022-11-12T14:30:24;4.10;;;3.10;;
68365;SDS011;55283;51.466;5.478;2022-11-12T14:33:06;3.67;;;2.77;;
68365;SDS011;55283;51.466;5.478;2022-11-12T14:35:34;5.03;;;3.10;;
68365;SDS011;55283;51.466;5.478;2022-11-12T14:38:22;3.40;;;2.75;;
68365;SDS011;55283;51.466;5.478;2022-11-12T14:41:02;5.13;;;3.00;;
68365;SDS011;55283;51.466;5.478;2022-11-12T14:43:36;6.35;;;3.10;;
68365;SDS011;55283;51.466;5.478;2022-11-12T14:46:17;4.43;;;2.85;;
68365;SDS011;55283;51.466;5.478;2022-11-12T14:51:38;4.20;;;3.10;;
68365;SDS011;55283;51.466;5.478;2022-11-12T14:54:09;4.32;;;2.88;;
68365;SDS011;55283;51.466;5.478;2022-11-12T14:56:44;4.55;;;2.88;;
68365;SDS011;55283;51.466;5.478;2022-11-12T14:59:13;4.40;;;2.93;;
68365;SDS011;55283;51.466;5.478;2022-11-12T15:01:40;4.47;;;2.85;;
68365;SDS011;55283;51.466;5.478;2022-11-12T15:04:53;3.95;;;2.90;;
68365;SDS011;55283;51.466;5.478;2022-11-12T15:07:33;5.37;;;3.30;;
68365;SDS011;55283;51.466;5.478;2022-11-12T15:10:34;6.28;;;2.80;;
68365;SDS011;55283;51.466;5.478;2022-11-12T15:13:02;3.70;;;2.70;;
68365;SDS011;55283;51.466;5.478;2022-11-12T15:15:36;4.88;;;2.88;;
68365;SDS011;55283;51.466;5.478;2022-11-12T15:18:05;4.23;;;3.10;;
68365;SDS011;55283;51.466;5.478;2022-11-12T15:20:38;4.60;;;2.85;;
68365;SDS011;55283;51.466;5.478;2022-11-12T15:23:03;4.10;;;2.90;;
68365;SDS011;55283;51.466;5.478;2022-11-12T15:25:29;5.13;;;2.90;;
68365;SDS011;55283;51.466;5.478;2022-11-12T15:28:10;4.53;;;2.90;;
68365;SDS011;55283;51.466;5.478;2022-11-12T15:30:37;3.88;;;2.92;;
68365;SDS011;55283;51.466;5.478;2022-11-12T15:35:37;3.05;;;2.65;;
68365;SDS011;55283;51.466;5.478;2022-11-12T15:40:55;5.43;;;2.90;;
68365;SDS011;55283;51.466;5.478;2022-11-12T15:43:26;5.40;;;2.77;;
68365;SDS011;55283;51.466;5.478;2022-11-12T15:45:53;4.03;;;3.10;;
68365;SDS011;55283;51.466;5.478;2022-11-12T15:48:20;4.93;;;3.03;;
68365;SDS011;55283;51.466;5.478;2022-11-12T15:50:46;3.73;;;2.87;;
68365;SDS011;55283;51.466;5.478;2022-11-12T15:53:12;5.82;;;3.10;;
68365;SDS011;55283;51.466;5.478;2022-11-12T15:55:38;3.60;;;2.78;;
68365;SDS011;55283;51.466;5.478;2022-11-12T15:58:05;4.30;;;3.00;;
68365;SDS011;55283;51.466;5.478;2022-11-12T16:00:35;4.65;;;3.05;;
68365;SDS011;55283;51.466;5.478;2022-11-12T16:03:20;4.00;;;2.80;;
68365;SDS011;55283;51.466;5.478;2022-11-12T16:05:46;5.43;;;3.10;;
68365;SDS011;55283;51.466;5.478;2022-11-12T16:08:14;3.08;;;2.63;;
68365;SDS011;55283;51.466;5.478;2022-11-12T16:10:45;4.50;;;3.08;;
68365;SDS011;55283;51.466;5.478;2022-11-12T16:15:55;8.27;;;4.40;;
68365;SDS011;55283;51.466;5.478;2022-11-12T16:18:20;8.07;;;4.20;;
68365;SDS011;55283;51.466;5.478;2022-11-12T16:20:46;7.90;;;4.30;;
68365;SDS011;55283;51.466;5.478;2022-11-12T16:23:13;10.05;;;4.45;;
68365;SDS011;55283;51.466;5.478;2022-11-12T16:25:41;7.88;;;4.40;;
68365;SDS011;55283;51.466;5.478;2022-11-12T16:28:12;7.23;;;3.83;;
68365;SDS011;55283;51.466;5.478;2022-11-12T16:30:42;10.32;;;3.80;;
68365;SDS011;55283;51.466;5.478;2022-11-12T16:33:09;7.43;;;3.95;;
68365;SDS011;55283;51.466;5.478;2022-11-12T16:35:36;9.15;;;4.25;;
68365;SDS011;55283;51.466;5.478;2022-11-12T16:38:03;7.17;;;4.30;;
68365;SDS011;55283;51.466;5.478;2022-11-12T16:40:39;6.72;;;3.90;;
68365;SDS011;55283;51.466;5.478;2022-11-12T16:43:06;8.73;;;4.00;;
68365;SDS011;55283;51.466;5.478;2022-11-12T16:45:37;8.70;;;4.03;;
68365;SDS011;55283;51.466;5.478;2022-11-12T16:48:08;8.43;;;4.20;;
68365;SDS011;55283;51.466;5.478;2022-11-12T16:50:39;8.93;;;4.20;;
68365;SDS011;55283;51.466;5.478;2022-11-12T16:53:05;7.50;;;4.20;;
68365;SDS011;55283;51.466;5.478;2022-11-12T16:55:30;6.77;;;4.10;;
68365;SDS011;55283;51.466;5.478;2022-11-12T16:57:56;8.43;;;4.20;;
68365;SDS011;55283;51.466;5.478;2022-11-12T17:00:21;8.67;;;4.23;;
68365;SDS011;55283;51.466;5.478;2022-11-12T17:02:46;6.10;;;4.03;;
68365;SDS011;55283;51.466;5.478;2022-11-12T17:05:13;5.83;;;3.90;;
68365;SDS011;55283;51.466;5.478;2022-11-12T17:07:48;7.63;;;3.95;;
68365;SDS011;55283;51.466;5.478;2022-11-12T17:10:18;8.63;;;4.03;;
68365;SDS011;55283;51.466;5.478;2022-11-12T17:12:47;6.68;;;3.80;;
68365;SDS011;55283;51.466;5.478;2022-11-12T17:15:16;6.18;;;3.13;;
68365;SDS011;55283;51.466;5.478;2022-11-12T17:17:42;6.53;;;3.60;;
68365;SDS011;55283;51.466;5.478;2022-11-12T17:20:10;8.07;;;3.60;;
68365;SDS011;55283;51.466;5.478;2022-11-12T17:22:38;7.50;;;3.40;;